Time;durP1;ratioP1;P1;durP2;ratioP2;P2;SDS_P1;SDS_P2;PMS_P1;PMS_P2;Temp;Humidity;BMP_temperature;BMP_pressure;BME280_temperature;BME280_humidity;BME280_pressure;Samples;Min_cycle;Max_cycle;Signal;HPM_P1;HPM_P2
2022/04/14 00:00:33;;;;;;;22.90;13.00;;;10.50;99.90;;;;;;4996415;28;20038;-79
2022/04/14 00:02:59;;;;;;;20.02;13.25;;;10.50;99.90;;;;;;4998284;28;20050;-80
2022/04/14 00:05:25;;;;;;;19.55;13.48;;;10.50;99.90;;;;;;4982418;28;20061;-80
2022/04/14 00:07:50;;;;;;;19.92;13.88;;;10.50;99.90;;;;;;4981343;28;20125;-80
2022/04/14 00:10:16;;;;;;;20.38;12.82;;;10.50;99.90;;;;;;4980418;28;20500;-79
2022/04/14 00:12:42;;;;;;;19.25;14.32;;;10.50;99.90;;;;;;4964072;28;20184;-80
2022/04/14 00:15:11;;;;;;;26.95;14.52;;;10.40;99.90;;;;;;4996331;28;20046;-79
2022/04/14 00:17:36;;;;;;;19.30;13.82;;;10.40;99.90;;;;;;4994665;28;20060;-79
2022/04/14 00:20:06;;;;;;;19.52;13.55;;;10.40;99.90;;;;;;4963733;28;20046;-80
2022/04/14 00:22:35;;;;;;;21.73;14.65;;;10.40;99.90;;;;;;4995154;28;20050;-80
2022/04/14 00:25:02;;;;;;;20.88;14.48;;;10.40;99.90;;;;;;4997569;28;20053;-80
2022/04/14 00:27:27;;;;;;;24.48;15.68;;;10.30;99.90;;;;;;4979700;28;20046;-79
2022/04/14 00:29:53;;;;;;;21.52;12.88;;;10.30;99.90;;;;;;4949193;28;20061;-79
2022/04/14 00:32:19;;;;;;;22.40;14.55;;;10.30;99.90;;;;;;4964738;28;20054;-79
2022/04/14 00:34:45;;;;;;;22.98;13.50;;;10.20;99.90;;;;;;4971752;28;20613;-81
2022/04/14 00:37:11;;;;;;;23.33;14.63;;;10.30;99.90;;;;;;4979320;28;20092;-80
2022/04/14 00:39:37;;;;;;;20.58;13.68;;;10.20;99.90;;;;;;4978248;28;20097;-81
2022/04/14 00:42:10;;;;;;;27.13;14.00;;;10.20;99.90;;;;;;4979871;28;20129;-80
2022/04/14 00:44:36;;;;;;;23.13;13.80;;;10.20;99.90;;;;;;4980808;28;20049;-80
2022/04/14 00:47:03;;;;;;;19.38;13.68;;;10.20;99.90;;;;;;4966452;28;20066;-81
2022/04/14 00:49:29;;;;;;;20.00;12.93;;;10.10;99.90;;;;;;4980209;28;20046;-81
2022/04/14 00:51:54;;;;;;;24.33;12.45;;;10.10;99.90;;;;;;4963522;28;20186;-80
2022/04/14 00:54:20;;;;;;;17.17;12.32;;;10.10;99.90;;;;;;4978922;28;20643;-80
2022/04/14 00:56:46;;;;;;;22.33;13.02;;;10.10;99.90;;;;;;4961615;28;20092;-80
2022/04/14 00:59:12;;;;;;;20.27;13.27;;;10.10;99.90;;;;;;4996007;28;20092;-81
2022/04/14 01:01:38;;;;;;;20.77;13.63;;;10.00;99.90;;;;;;4963880;28;20057;-81
2022/04/14 01:04:04;;;;;;;22.50;13.10;;;10.00;99.90;;;;;;4979658;28;20058;-80
2022/04/14 01:06:30;;;;;;;22.77;13.63;;;10.00;99.90;;;;;;4979139;28;20046;-80
2022/04/14 01:11:41;;;;;;;20.00;13.80;;;10.00;99.90;;;;;;4980730;28;20497;-81
2022/04/14 01:14:07;;;;;;;22.13;13.80;;;9.90;99.90;;;;;;4996582;28;20042;-80
2022/04/14 01:16:33;;;;;;;19.55;12.70;;;9.90;99.90;;;;;;4950075;28;20043;-80
2022/04/14 01:18:59;;;;;;;19.33;13.75;;;9.90;99.90;;;;;;4979779;28;20069;-81
2022/04/14 01:21:30;;;;;;;21.67;13.75;;;9.90;99.90;;;;;;4978673;28;20052;-80
2022/04/14 01:23:55;;;;;;;22.55;14.10;;;9.90;99.90;;;;;;4995775;28;20073;-80
2022/04/14 01:26:21;;;;;;;22.13;13.38;;;9.80;99.90;;;;;;4965385;28;20041;-80
2022/04/14 01:28:47;;;;;;;21.30;12.30;;;9.80;99.90;;;;;;4994364;28;20202;-80
2022/04/14 01:31:13;;;;;;;22.65;14.13;;;9.80;99.90;;;;;;4966152;28;20120;-80
2022/04/14 01:33:38;;;;;;;17.42;13.45;;;9.80;99.90;;;;;;4962801;28;20054;-81
2022/04/14 01:36:05;;;;;;;21.45;11.82;;;9.80;99.90;;;;;;4947808;28;20058;-80
2022/04/14 01:38:31;;;;;;;24.05;14.73;;;9.80;99.90;;;;;;4949458;28;20054;-80
2022/04/14 01:40:57;;;;;;;25.45;14.63;;;9.80;99.90;;;;;;4964373;28;20046;-80
2022/04/14 01:43:22;;;;;;;22.38;13.45;;;9.80;99.90;;;;;;4980352;28;20104;-80
2022/04/14 01:45:50;;;;;;;22.35;14.48;;;9.70;99.90;;;;;;4987451;28;20181;-81
2022/04/14 01:48:17;;;;;;;20.58;13.48;;;9.70;99.90;;;;;;4981697;28;20108;-80
2022/04/14 01:50:43;;;;;;;28.08;15.50;;;9.70;99.90;;;;;;4949388;28;20104;-81
2022/04/14 01:53:09;;;;;;;22.70;14.60;;;9.70;99.90;;;;;;4967138;28;20034;-80
2022/04/14 01:55:35;;;;;;;23.35;14.70;;;9.70;99.90;;;;;;4965723;28;20490;-80
2022/04/14 01:58:00;;;;;;;22.58;15.05;;;9.60;99.90;;;;;;4963592;28;20073;-80
2022/04/14 02:00:26;;;;;;;25.25;14.95;;;9.60;99.90;;;;;;4961390;28;20049;-80
2022/04/14 02:02:52;;;;;;;23.10;15.15;;;9.60;99.90;;;;;;4979201;28;20053;-80
2022/04/14 02:05:17;;;;;;;22.63;15.88;;;9.60;99.90;;;;;;4963845;28;20128;-80
2022/04/14 02:07:43;;;;;;;23.13;15.50;;;9.60;99.90;;;;;;4977341;28;20089;-80
2022/04/14 02:10:09;;;;;;;22.25;14.73;;;9.60;99.90;;;;;;4994998;28;20049;-80
2022/04/14 02:12:35;;;;;;;25.55;15.18;;;9.10;99.90;;;;;;4961354;28;20050;-81
2022/04/14 02:15:01;;;;;;;21.17;14.93;;;9.60;99.90;;;;;;4964254;28;20123;-81
2022/04/14 02:17:27;;;;;;;21.67;15.65;;;9.60;99.90;;;;;;4979091;28;20054;-80
2022/04/14 02:19:52;;;;;;;26.45;15.35;;;9.50;99.90;;;;;;4976996;28;20061;-80
2022/04/14 02:22:18;;;;;;;24.60;14.65;;;9.60;99.90;;;;;;4979488;28;20049;-82
2022/04/14 02:24:44;;;;;;;21.17;15.68;;;9.50;99.90;;;;;;4978406;28;20041;-81
2022/04/14 02:27:10;;;;;;;24.38;14.63;;;9.50;99.90;;;;;;4961847;28;20049;-80
2022/04/14 02:29:37;;;;;;;23.52;16.48;;;9.50;99.90;;;;;;4948864;28;20100;-81
2022/04/14 02:32:03;;;;;;;22.85;15.15;;;9.50;99.90;;;;;;4978859;28;20050;-80
2022/04/14 02:34:29;;;;;;;24.77;15.15;;;9.50;99.90;;;;;;4947433;28;20438;-80
2022/04/14 02:36:54;;;;;;;28.75;15.65;;;9.40;99.90;;;;;;4978254;28;20081;-81
2022/04/14 02:39:20;;;;;;;20.80;14.95;;;9.40;99.90;;;;;;4961494;28;20657;-81
2022/04/14 02:41:46;;;;;;;22.88;15.48;;;9.40;99.90;;;;;;4977678;28;20046;-81
2022/04/14 02:44:12;;;;;;;26.48;16.33;;;9.40;99.90;;;;;;4959270;28;20317;-80
2022/04/14 02:46:38;;;;;;;26.30;17.13;;;9.40;99.90;;;;;;4944724;28;20054;-81
2022/04/14 02:49:04;;;;;;;27.58;16.83;;;9.40;99.90;;;;;;4965329;28;20065;-81
2022/04/14 02:51:29;;;;;;;23.92;16.25;;;9.40;99.90;;;;;;4979909;28;20061;-80
2022/04/14 02:53:55;;;;;;;23.80;16.30;;;9.40;99.90;;;;;;4971904;28;20492;-81
2022/04/14 02:56:21;;;;;;;23.98;16.67;;;9.40;99.90;;;;;;4981644;28;20054;-81
2022/04/14 02:58:46;;;;;;;24.95;15.80;;;9.40;99.90;;;;;;4963810;28;20046;-81
2022/04/14 03:01:12;;;;;;;28.73;16.92;;;9.40;99.90;;;;;;4964708;28;20050;-81
2022/04/14 03:03:38;;;;;;;24.15;17.20;;;9.70;99.90;;;;;;4980089;28;20056;-81
2022/04/14 03:06:04;;;;;;;22.38;16.35;;;9.40;99.90;;;;;;4948034;28;20038;-81
2022/04/14 03:08:30;;;;;;;28.05;16.98;;;9.40;99.90;;;;;;4995563;28;20049;-81
2022/04/14 03:10:55;;;;;;;29.42;17.10;;;9.30;99.90;;;;;;4966102;28;20049;-81
2022/04/14 03:13:21;;;;;;;27.08;17.80;;;9.40;99.90;;;;;;4981019;28;20045;-81
2022/04/14 03:15:49;;;;;;;31.95;19.70;;;9.30;99.90;;;;;;4967099;28;20119;-81
2022/04/14 03:18:15;;;;;;;28.30;19.02;;;9.30;99.90;;;;;;4951989;28;20689;-81
2022/04/14 03:20:41;;;;;;;27.67;17.67;;;9.30;99.90;;;;;;4982157;28;20041;-80
2022/04/14 03:23:07;;;;;;;29.02;20.05;;;9.30;99.90;;;;;;4979624;28;20065;-81
2022/04/14 03:25:33;;;;;;;27.98;19.23;;;9.20;99.90;;;;;;4967021;28;20046;-80
2022/04/14 03:27:59;;;;;;;27.85;19.55;;;9.20;99.90;;;;;;4980425;28;20188;-81
2022/04/14 03:30:25;;;;;;;34.78;21.00;;;9.20;99.90;;;;;;4981026;28;20128;-81
2022/04/14 03:32:50;;;;;;;29.98;20.20;;;9.20;99.90;;;;;;4950818;28;20061;-81
2022/04/14 03:35:16;;;;;;;28.13;19.98;;;9.20;99.90;;;;;;4964601;28;20141;-79
2022/04/14 03:37:42;;;;;;;33.13;19.95;;;9.20;99.90;;;;;;4982767;28;20046;-80
2022/04/14 03:40:09;;;;;;;29.45;18.85;;;9.20;99.90;;;;;;4967108;28;20050;-82
2022/04/14 03:42:35;;;;;;;30.70;19.00;;;9.20;99.90;;;;;;4996730;28;20049;-79
2022/04/14 03:45:02;;;;;;;29.42;18.48;;;9.20;99.90;;;;;;4997704;28;20531;-80
2022/04/14 03:47:28;;;;;;;28.40;18.65;;;9.20;99.90;;;;;;4972698;28;20050;-80
2022/04/14 03:49:54;;;;;;;37.25;19.42;;;9.20;99.90;;;;;;4982558;28;20608;-80
2022/04/14 03:52:20;;;;;;;25.35;17.23;;;9.20;99.90;;;;;;4989287;28;20910;-80
2022/04/14 03:54:46;;;;;;;27.80;18.67;;;9.20;99.90;;;;;;4999003;28;20050;-80
2022/04/14 03:57:12;;;;;;;28.63;17.20;;;9.20;99.90;;;;;;4979569;28;20046;-80
2022/04/14 03:59:37;;;;;;;32.28;19.13;;;9.20;99.90;;;;;;4996006;28;20042;-80
2022/04/14 04:02:04;;;;;;;32.45;20.27;;;9.60;99.90;;;;;;4978518;28;20129;-80
2022/04/14 04:04:31;;;;;;;29.15;18.27;;;9.10;99.90;;;;;;4981835;28;20037;-80
2022/04/14 04:06:57;;;;;;;30.92;18.77;;;9.20;99.90;;;;;;4950131;28;20487;-82
2022/04/14 04:09:23;;;;;;;26.63;18.45;;;9.30;99.90;;;;;;4997481;28;20050;-81
2022/04/14 04:11:48;;;;;;;32.33;19.65;;;9.10;99.90;;;;;;4964614;28;20046;-81
2022/04/14 04:14:14;;;;;;;32.53;19.65;;;9.10;99.90;;;;;;4997800;28;20050;-82
2022/04/14 04:16:40;;;;;;;29.25;19.20;;;9.10;99.90;;;;;;4968037;28;20069;-81
2022/04/14 04:19:06;;;;;;;29.08;19.73;;;9.10;99.90;;;;;;4996994;28;20766;-82
2022/04/14 04:21:32;;;;;;;27.85;18.15;;;9.00;99.90;;;;;;4999365;28;20108;-83
2022/04/14 04:23:58;;;;;;;30.67;19.10;;;9.00;99.90;;;;;;4982139;28;20559;-82
2022/04/14 04:26:24;;;;;;;32.58;20.88;;;9.00;99.90;;;;;;4998849;28;20057;-83
2022/04/14 04:28:49;;;;;;;33.03;21.70;;;9.00;99.90;;;;;;4980855;28;20041;-82
2022/04/14 04:31:15;;;;;;;30.48;20.15;;;9.10;99.90;;;;;;4981522;28;20050;-82
2022/04/14 04:33:42;;;;;;;34.20;21.50;;;9.10;99.90;;;;;;4963199;28;20042;-81
2022/04/14 04:36:08;;;;;;;35.28;21.38;;;9.50;99.90;;;;;;4966567;28;20360;-81
2022/04/14 04:38:34;;;;;;;36.00;21.67;;;9.10;99.90;;;;;;4983075;28;20049;-82
2022/04/14 04:41:00;;;;;;;34.95;21.52;;;9.10;99.90;;;;;;4949457;28;20952;-82
2022/04/14 04:43:26;;;;;;;31.02;20.73;;;9.10;99.90;;;;;;4963153;28;20057;-81
2022/04/14 04:45:52;;;;;;;40.17;21.58;;;9.10;99.90;;;;;;4980407;28;20057;-83
2022/04/14 04:48:17;;;;;;;36.00;21.85;;;9.10;99.90;;;;;;4966124;28;20053;-82
2022/04/14 04:50:43;;;;;;;38.20;23.02;;;9.10;99.90;;;;;;4963313;28;20045;-82
2022/04/14 04:53:09;;;;;;;34.05;22.08;;;9.10;99.90;;;;;;4981548;28;20035;-82
2022/04/14 04:55:35;;;;;;;31.50;19.95;;;9.20;99.90;;;;;;4961300;28;20112;-82
2022/04/14 04:58:00;;;;;;;40.15;21.73;;;9.20;99.90;;;;;;4949434;28;20149;-82
2022/04/14 05:00:26;;;;;;;40.95;22.08;;;9.20;99.90;;;;;;5003131;28;20161;-82
2022/04/14 05:02:52;;;;;;;41.65;22.38;;;9.20;99.90;;;;;;4978234;28;20046;-79
2022/04/14 05:05:21;;;;;;;30.75;21.08;;;9.30;99.90;;;;;;4963788;28;20057;-80
2022/04/14 05:07:47;;;;;;;33.78;21.83;;;9.30;99.90;;;;;;4981387;28;20049;-79
2022/04/14 05:10:13;;;;;;;36.30;23.30;;;9.30;99.90;;;;;;4995906;28;20046;-79
2022/04/14 05:12:40;;;;;;;37.45;22.20;;;9.30;99.90;;;;;;4962625;28;20046;-79
2022/04/14 05:15:06;;;;;;;35.25;21.80;;;9.40;99.90;;;;;;4980142;28;20057;-79
2022/04/14 05:17:31;;;;;;;31.30;21.23;;;9.40;99.90;;;;;;4950869;28;20045;-79
2022/04/14 05:19:57;;;;;;;38.75;20.42;;;9.40;99.90;;;;;;4995264;28;20145;-78
2022/04/14 05:22:23;;;;;;;31.08;20.30;;;9.40;99.90;;;;;;4971592;28;20078;-80
2022/04/14 05:24:49;;;;;;;32.42;20.60;;;9.40;99.90;;;;;;4964578;28;20132;-79
2022/04/14 05:27:14;;;;;;;35.20;21.08;;;9.40;99.90;;;;;;4964890;28;20132;-80
2022/04/14 05:29:40;;;;;;;32.78;19.33;;;9.40;99.90;;;;;;4963281;28;20046;-80
2022/04/14 05:32:06;;;;;;;33.13;19.50;;;9.40;99.90;;;;;;4978268;28;20050;-79
2022/04/14 05:34:33;;;;;;;28.33;19.48;;;9.30;99.90;;;;;;4955596;28;20052;-79
2022/04/14 05:36:58;;;;;;;27.35;19.00;;;9.40;99.90;;;;;;4977848;28;20042;-80
2022/04/14 05:39:24;;;;;;;26.80;17.80;;;9.30;99.90;;;;;;4965282;28;20057;-80
2022/04/14 05:41:50;;;;;;;28.85;17.52;;;9.30;99.90;;;;;;4978342;28;20042;-80
2022/04/14 05:44:17;;;;;;;25.98;17.50;;;9.30;99.90;;;;;;4980774;28;20042;-80
2022/04/14 05:46:43;;;;;;;28.08;18.48;;;9.40;99.90;;;;;;4959635;28;20050;-79
2022/04/14 05:49:09;;;;;;;32.38;19.38;;;9.40;99.90;;;;;;4994584;28;20096;-80
2022/04/14 05:51:34;;;;;;;26.33;18.23;;;9.40;99.90;;;;;;4980364;28;20097;-80
2022/04/14 05:54:00;;;;;;;27.75;17.55;;;9.40;99.90;;;;;;4977813;28;20113;-80
2022/04/14 05:56:26;;;;;;;30.80;17.65;;;9.50;99.90;;;;;;4979953;28;20542;-80
2022/04/14 05:58:53;;;;;;;29.20;17.83;;;9.50;99.90;;;;;;4978434;28;20048;-80
2022/04/14 06:01:19;;;;;;;29.25;17.02;;;9.50;99.90;;;;;;4979071;28;20957;-80
2022/04/14 06:03:45;;;;;;;29.73;17.80;;;9.50;99.90;;;;;;4995301;28;20092;-79
2022/04/14 06:06:13;;;;;;;28.42;18.55;;;9.60;99.90;;;;;;4980223;28;20097;-80
2022/04/14 06:08:38;;;;;;;28.50;18.05;;;9.60;99.90;;;;;;4961386;28;20160;-80
2022/04/14 06:11:05;;;;;;;32.28;19.48;;;9.60;99.90;;;;;;4961963;28;20152;-80
2022/04/14 06:13:31;;;;;;;32.08;18.15;;;9.70;99.90;;;;;;4963886;28;20057;-79
2022/04/14 06:15:57;;;;;;;34.33;18.88;;;9.70;99.90;;;;;;4961189;28;20049;-79
2022/04/14 06:18:23;;;;;;;27.00;18.23;;;9.70;99.90;;;;;;4979417;28;20050;-80
2022/04/14 06:20:50;;;;;;;30.63;18.88;;;9.70;99.90;;;;;;4979474;28;20046;-79
2022/04/14 06:23:16;;;;;;;33.35;19.52;;;9.80;99.90;;;;;;4950235;28;20058;-79
2022/04/14 06:25:45;;;;;;;30.15;18.92;;;9.80;99.90;;;;;;4965420;28;20113;-78
2022/04/14 06:28:11;;;;;;;33.40;18.92;;;9.80;99.90;;;;;;4964440;28;20125;-79
2022/04/14 06:30:36;;;;;;;29.40;18.23;;;9.90;99.90;;;;;;4951276;28;20121;-79
2022/04/14 06:33:04;;;;;;;32.95;19.90;;;10.00;99.90;;;;;;4980803;28;20139;-79
2022/04/14 06:35:30;;;;;;;31.38;19.45;;;10.00;99.90;;;;;;4997492;28;20048;-79
2022/04/14 06:37:57;;;;;;;28.63;17.85;;;10.00;99.90;;;;;;4980022;28;20046;-79
2022/04/14 06:40:23;;;;;;;29.92;17.75;;;10.10;99.90;;;;;;4995862;28;20054;-79
2022/04/14 06:42:50;;;;;;;26.23;17.08;;;10.20;99.90;;;;;;4983024;28;20120;-79
2022/04/14 06:45:16;;;;;;;29.77;17.35;;;10.20;99.90;;;;;;4982898;28;20053;-79
2022/04/14 06:47:43;;;;;;;28.83;16.40;;;10.30;99.90;;;;;;4990383;28;20054;-79
2022/04/14 06:50:09;;;;;;;27.48;16.00;;;10.30;99.90;;;;;;4966238;28;20168;-79
2022/04/14 06:52:38;;;;;;;25.95;15.38;;;10.40;99.90;;;;;;4981657;28;20054;-79
2022/04/14 06:55:04;;;;;;;24.52;15.52;;;10.40;99.90;;;;;;4988543;28;20054;-79
2022/04/14 06:57:30;;;;;;;24.42;15.75;;;10.50;99.90;;;;;;4982297;28;20057;-79
2022/04/14 06:59:56;;;;;;;23.45;14.63;;;10.60;99.90;;;;;;4996579;28;20046;-79
2022/04/14 07:02:22;;;;;;;25.27;15.40;;;10.70;99.90;;;;;;4998592;28;20412;-80
2022/04/14 07:04:49;;;;;;;21.65;14.10;;;10.80;99.90;;;;;;4980018;28;20045;-79
2022/04/14 07:07:14;;;;;;;20.00;14.52;;;10.90;99.90;;;;;;4952364;28;20080;-79
2022/04/14 07:09:40;;;;;;;23.90;14.57;;;11.00;99.90;;;;;;4980665;28;20046;-79
2022/04/14 07:12:06;;;;;;;21.17;14.20;;;11.00;99.90;;;;;;4998628;28;20308;-80
2022/04/14 07:14:32;;;;;;;21.10;13.57;;;11.10;99.90;;;;;;4981636;28;20050;-80
2022/04/14 07:16:58;;;;;;;20.38;13.90;;;11.20;99.90;;;;;;4965624;28;20050;-80
2022/04/14 07:19:24;;;;;;;21.25;13.48;;;11.30;99.90;;;;;;4983792;28;20054;-80
2022/04/14 07:21:50;;;;;;;21.52;13.55;;;11.40;99.90;;;;;;4982802;28;20042;-80
2022/04/14 07:24:16;;;;;;;18.33;13.07;;;11.50;99.90;;;;;;4955931;28;20042;-81
2022/04/14 07:26:42;;;;;;;23.48;12.93;;;11.60;99.90;;;;;;4996457;28;20072;-80
2022/04/14 07:29:08;;;;;;;18.35;13.30;;;11.80;99.90;;;;;;4979291;28;20125;-80
2022/04/14 07:31:35;;;;;;;17.80;12.43;;;11.80;99.90;;;;;;4951414;28;20049;-79
2022/04/14 07:34:02;;;;;;;18.23;11.55;;;12.00;99.90;;;;;;4963641;28;20692;-81
2022/04/14 07:36:28;;;;;;;17.58;11.75;;;12.10;99.90;;;;;;4996823;28;20061;-80
2022/04/14 07:38:54;;;;;;;17.63;11.63;;;12.10;99.90;;;;;;4979155;28;20480;-79
2022/04/14 07:41:20;;;;;;;18.00;12.07;;;12.20;99.90;;;;;;4980864;28;20049;-80
2022/04/14 07:43:46;;;;;;;16.08;11.48;;;12.30;99.90;;;;;;4980786;28;20045;-80
2022/04/14 07:46:11;;;;;;;14.82;11.52;;;12.40;99.90;;;;;;4981125;28;20042;-81
2022/04/14 07:48:37;;;;;;;18.17;11.98;;;12.50;99.90;;;;;;4996872;28;20050;-79
2022/04/14 07:51:03;;;;;;;16.20;11.82;;;12.70;99.90;;;;;;4979774;28;20050;-79
2022/04/14 07:53:33;;;;;;;16.73;11.60;;;12.80;99.90;;;;;;4964488;28;20050;-80
2022/04/14 07:55:58;;;;;;;16.52;11.55;;;12.90;99.90;;;;;;4963314;28;20455;-79
2022/04/14 07:58:24;;;;;;;16.27;11.27;;;13.10;99.90;;;;;;4966746;28;20114;-79
2022/04/14 08:00:50;;;;;;;13.95;10.57;;;13.10;99.90;;;;;;4996093;28;20042;-78
2022/04/14 08:03:16;;;;;;;14.65;11.18;;;13.10;99.90;;;;;;4996899;28;20510;-79
2022/04/14 08:05:44;;;;;;;14.95;10.45;;;13.20;99.90;;;;;;4982115;28;20093;-79
2022/04/14 08:08:15;;;;;;;13.90;10.95;;;13.30;99.90;;;;;;4980836;28;20268;-79
2022/04/14 08:10:42;;;;;;;15.98;10.52;;;13.40;99.90;;;;;;4994575;28;20121;-80
2022/04/14 08:13:09;;;;;;;12.90;10.68;;;13.60;99.90;;;;;;4997626;28;20075;-80
2022/04/14 08:15:35;;;;;;;14.23;9.73;;;13.70;99.90;;;;;;4980494;28;20049;-80
2022/04/14 08:18:06;;;;;;;12.93;9.88;;;13.90;99.90;;;;;;4996607;28;20069;-82
2022/04/14 08:20:33;;;;;;;16.80;10.65;;;14.10;99.90;;;;;;4946553;28;20491;-81
2022/04/14 08:23:00;;;;;;;14.52;9.82;;;14.10;99.90;;;;;;4979649;28;20049;-83
2022/04/14 08:25:31;;;;;;;14.52;9.75;;;14.20;99.90;;;;;;4995991;28;20613;-75
2022/04/14 08:28:00;;;;;;;15.60;10.57;;;14.40;99.90;;;;;;4982609;28;20042;-76
2022/04/14 08:30:28;;;;;;;12.40;9.70;;;14.60;99.90;;;;;;4995935;28;20047;-76
2022/04/14 08:32:55;;;;;;;13.15;10.75;;;14.70;99.90;;;;;;4964171;28;20046;-78
2022/04/14 08:35:21;;;;;;;13.07;10.35;;;15.00;99.90;;;;;;4964330;28;20152;-77
2022/04/14 08:37:48;;;;;;;14.38;10.38;;;15.10;99.90;;;;;;4979741;28;20062;-77
2022/04/14 08:40:17;;;;;;;13.20;10.25;;;15.30;99.90;;;;;;4978570;28;20516;-78
2022/04/14 08:42:59;;;;;;;11.75;9.30;;;15.40;99.90;;;;;;4978858;28;20045;-78
2022/04/14 08:45:29;;;;;;;12.63;10.25;;;15.00;99.90;;;;;;4985920;28;20172;-79
2022/04/14 08:48:00;;;;;;;12.10;8.93;;;15.50;99.90;;;;;;4979565;28;20061;-79
2022/04/14 08:50:27;;;;;;;12.20;9.50;;;15.70;99.90;;;;;;4987079;28;20089;-79
2022/04/14 08:52:53;;;;;;;13.60;9.55;;;15.80;99.90;;;;;;4995204;28;20147;-78
2022/04/14 08:55:19;;;;;;;12.32;9.20;;;15.90;99.90;;;;;;4982531;28;20054;-77
2022/04/14 08:57:45;;;;;;;12.25;9.25;;;15.80;99.90;;;;;;4996218;28;20491;-78
2022/04/14 09:00:13;;;;;;;13.77;9.38;;;15.70;99.90;;;;;;4981148;28;20068;-79
2022/04/14 09:02:43;;;;;;;11.32;8.40;;;15.70;99.90;;;;;;4982327;28;20061;-79
2022/04/14 09:05:10;;;;;;;13.20;9.80;;;15.80;99.90;;;;;;5012289;28;20479;-79
2022/04/14 09:07:36;;;;;;;11.73;8.52;;;15.80;99.90;;;;;;4998816;28;20480;-80
2022/04/14 09:10:02;;;;;;;11.60;8.32;;;15.80;99.90;;;;;;4979823;28;20054;-80
2022/04/14 09:12:30;;;;;;;13.80;9.23;;;15.80;99.90;;;;;;4981486;28;20050;-79
2022/04/14 09:14:55;;;;;;;11.95;8.45;;;15.90;99.90;;;;;;4979797;28;20495;-79
2022/04/14 09:17:21;;;;;;;10.45;8.93;;;16.00;99.90;;;;;;4996759;28;20042;-80
2022/04/14 09:19:48;;;;;;;10.95;8.23;;;16.10;99.90;;;;;;4996279;28;20561;-82
2022/04/14 09:22:15;;;;;;;12.95;8.60;;;16.30;99.90;;;;;;4981141;28;20054;-83
2022/04/14 09:24:48;;;;;;;10.77;8.60;;;16.30;99.90;;;;;;4984164;28;20060;-81
2022/04/14 09:27:26;;;;;;;11.30;9.40;;;16.40;99.90;;;;;;4998903;28;20042;-81
2022/04/14 09:29:53;;;;;;;12.40;8.40;;;16.50;99.90;;;;;;4998335;28;20503;-80
2022/04/14 09:32:39;;;;;;;11.05;8.02;;;16.60;99.90;;;;;;4997539;28;20065;-79
2022/04/14 09:35:23;;;;;;;11.07;7.65;;;16.70;99.90;;;;;;4996256;28;20037;-82
2022/04/14 09:38:13;;;;;;;10.85;8.13;;;16.70;99.90;;;;;;4981981;28;20050;-81
2022/04/14 09:40:40;;;;;;;10.95;7.50;;;16.80;99.90;;;;;;4988795;28;20136;-81
2022/04/14 09:43:06;;;;;;;9.98;6.88;;;16.90;99.90;;;;;;4995097;28;20050;-81
2022/04/14 09:45:35;;;;;;;9.73;6.88;;;17.10;99.90;;;;;;4995902;28;20050;-81
2022/04/14 09:48:09;;;;;;;9.90;7.35;;;17.10;99.90;;;;;;4981780;28;20062;-83
2022/04/14 09:50:39;;;;;;;9.18;6.68;;;17.40;99.90;;;;;;4999316;28;20046;-91
2022/04/14 09:53:11;;;;;;;11.73;7.60;;;17.30;99.90;;;;;;4982175;28;20044;-80
2022/04/14 09:55:50;;;;;;;9.18;6.57;;;17.50;99.90;;;;;;5012483;28;20057;-80
2022/04/14 09:58:20;;;;;;;9.75;5.90;;;17.60;99.90;;;;;;5004751;28;20050;-80
2022/04/14 10:00:56;;;;;;;12.43;7.32;;;17.70;99.90;;;;;;5005315;28;20458;-84
2022/04/14 10:03:27;;;;;;;11.85;6.80;;;17.80;99.90;;;;;;4988966;28;20057;-84
2022/04/14 10:06:13;;;;;;;9.90;6.43;;;18.00;99.90;;;;;;5013288;28;20466;-84
2022/04/14 10:08:50;;;;;;;10.40;6.07;;;18.20;99.90;;;;;;4995884;28;20395;-84
2022/04/14 10:11:32;;;;;;;8.27;6.07;;;18.60;99.90;;;;;;4994043;28;20053;-82
2022/04/14 10:14:12;;;;;;;7.32;6.13;;;18.80;99.90;;;;;;4996729;28;20670;-80
2022/04/14 10:16:39;;;;;;;9.70;5.75;;;18.90;99.90;;;;;;4996200;28;20561;-81
2022/04/14 10:19:09;;;;;;;6.63;5.20;;;19.10;99.90;;;;;;4981434;28;20117;-80
2022/04/14 10:21:38;;;;;;;9.23;5.15;;;19.20;99.90;;;;;;4980944;28;20057;-80
2022/04/14 10:24:06;;;;;;;9.32;5.57;;;19.50;99.90;;;;;;5002502;28;20050;-79
2022/04/14 10:26:35;;;;;;;7.15;4.85;;;19.70;99.90;;;;;;4977552;28;20051;-81
2022/04/14 10:29:03;;;;;;;6.90;4.57;;;19.90;99.90;;;;;;4986911;28;20046;-79
2022/04/14 10:31:40;;;;;;;9.32;5.20;;;19.90;99.90;;;;;;4993578;28;20068;-79
2022/04/14 10:34:08;;;;;;;8.23;5.22;;;19.90;99.90;;;;;;4995458;28;20387;-79
2022/04/14 10:36:42;;;;;;;7.40;4.65;;;20.00;99.90;;;;;;4994044;28;20466;-80
2022/04/14 10:39:13;;;;;;;8.00;4.70;;;20.00;99.90;;;;;;4979164;28;20125;-80
2022/04/14 10:41:45;;;;;;;6.88;4.03;;;20.00;99.90;;;;;;4992546;28;20466;-78
2022/04/14 10:44:13;;;;;;;7.30;4.28;;;20.30;99.90;;;;;;4994417;28;20052;-80
2022/04/14 10:46:41;;;;;;;10.93;4.82;;;20.30;99.90;;;;;;4994408;28;20065;-80
2022/04/14 10:49:11;;;;;;;7.60;4.68;;;20.30;99.90;;;;;;4986200;28;20483;-79
2022/04/14 10:51:37;;;;;;;7.97;4.63;;;20.30;99.90;;;;;;4978207;28;20058;-79
2022/04/14 10:54:08;;;;;;;8.77;5.63;;;20.40;99.90;;;;;;4979975;28;20050;-78
2022/04/14 10:56:34;;;;;;;8.38;5.45;;;20.30;99.90;;;;;;5003266;28;20083;-79
2022/04/14 10:59:00;;;;;;;7.88;4.85;;;20.50;99.90;;;;;;4993995;28;20141;-79
2022/04/14 11:01:47;;;;;;;7.65;4.65;;;20.70;99.90;;;;;;4991685;28;20561;-80
2022/04/14 11:04:25;;;;;;;7.55;5.10;;;20.70;99.90;;;;;;5002793;28;20482;-80
2022/04/14 11:06:52;;;;;;;8.73;5.20;;;20.60;99.90;;;;;;4994560;28;20041;-80
2022/04/14 11:09:44;;;;;;;8.13;5.45;;;20.50;99.90;;;;;;4977652;28;20050;-80
2022/04/14 11:12:19;;;;;;;7.22;5.05;;;20.40;99.90;;;;;;4995728;28;20049;-79
2022/04/14 11:14:47;;;;;;;7.47;5.57;;;20.40;99.90;;;;;;4998380;28;20100;-80
2022/04/14 11:20:23;;;;;;;7.22;5.10;;;20.80;99.90;;;;;;4995868;28;20074;-80
2022/04/14 11:23:12;;;;;;;8.23;5.63;;;20.90;99.90;;;;;;4998426;28;20049;-79
2022/04/14 11:25:41;;;;;;;7.50;5.38;;;20.80;99.90;;;;;;4969782;28;20058;-79
2022/04/14 11:28:21;;;;;;;8.98;4.60;;;20.60;99.90;;;;;;4998198;28;20403;-79
2022/04/14 11:30:49;;;;;;;7.65;5.13;;;20.70;99.90;;;;;;4996430;28;20158;-80
2022/04/14 11:33:36;;;;;;;10.02;5.10;;;20.70;99.90;;;;;;4997176;28;20518;-80
2022/04/14 11:36:16;;;;;;;12.05;6.10;;;20.50;99.90;;;;;;4988791;28;20042;-79
2022/04/14 11:38:50;;;;;;;7.80;4.68;;;20.50;99.90;;;;;;4981237;28;20077;-79
2022/04/14 11:41:43;;;;;;;9.30;4.95;;;20.70;99.90;;;;;;4981034;28;20054;-80
2022/04/14 11:44:14;;;;;;;7.18;4.72;;;21.10;99.90;;;;;;5000529;28;20042;-79
2022/04/14 11:46:43;;;;;;;10.02;5.10;;;21.20;99.90;;;;;;4995980;28;20551;-80
2022/04/14 11:49:11;;;;;;;7.82;4.95;;;21.40;99.90;;;;;;5013941;28;20061;-79
2022/04/14 11:51:47;;;;;;;9.27;4.93;;;21.70;99.90;;;;;;4996480;28;20463;-79
2022/04/14 11:54:18;;;;;;;9.82;5.00;;;21.80;99.90;;;;;;4996931;28;20055;-80
2022/04/14 11:56:50;;;;;;;7.97;4.88;;;21.90;99.90;;;;;;4997015;28;20096;-80
2022/04/14 11:59:19;;;;;;;7.75;5.05;;;22.00;99.90;;;;;;4987745;28;20141;-80
2022/04/14 12:01:50;;;;;;;8.90;4.85;;;22.00;99.90;;;;;;4995848;28;20054;-80
2022/04/14 12:04:16;;;;;;;8.82;4.95;;;21.90;99.90;;;;;;4964932;28;20046;-79
2022/04/14 12:07:12;;;;;;;7.65;4.50;;;21.80;99.90;;;;;;4980923;28;20128;-79
2022/04/14 12:09:40;;;;;;;6.95;4.50;;;22.00;99.30;;;;;;4985793;28;20060;-80
2022/04/14 12:12:10;;;;;;;7.95;4.97;;;21.90;99.90;;;;;;4998265;28;20053;-79
2022/04/14 12:14:47;;;;;;;6.75;4.43;;;21.80;99.90;;;;;;4996652;28;20046;-79
2022/04/14 12:17:18;;;;;;;6.63;4.15;;;21.60;99.90;;;;;;4996808;28;20046;-79
2022/04/14 12:19:51;;;;;;;8.88;4.40;;;21.70;99.90;;;;;;4998025;28;20058;-80
2022/04/14 12:22:18;;;;;;;8.00;4.25;;;21.70;99.90;;;;;;4967074;28;20104;-79
2022/04/14 12:24:52;;;;;;;7.90;4.07;;;21.60;99.90;;;;;;4999504;28;20435;-80
2022/04/14 12:27:23;;;;;;;7.47;4.32;;;21.80;99.90;;;;;;4983783;28;20373;-80
2022/04/14 12:30:04;;;;;;;8.25;4.70;;;21.80;99.90;;;;;;4980453;28;20136;-80
2022/04/14 12:32:29;;;;;;;8.30;4.32;;;21.90;99.90;;;;;;4997288;28;20038;-80
2022/04/14 12:34:56;;;;;;;8.10;4.70;;;21.90;99.90;;;;;;4998021;28;20081;-80
2022/04/14 12:37:32;;;;;;;9.10;5.30;;;21.70;99.90;;;;;;4998474;28;20050;-80
2022/04/14 12:40:05;;;;;;;8.23;4.63;;;21.40;99.90;;;;;;4996072;28;20054;-80
2022/04/14 12:42:32;;;;;;;8.40;4.55;;;20.90;99.90;;;;;;4980580;28;20058;-80
2022/04/14 12:45:09;;;;;;;7.70;4.65;;;20.50;99.90;;;;;;4982368;28;20109;-79